Time;durP1;ratioP1;P1;durP2;ratioP2;P2;SDS_P1;SDS_P2;PMS_P1;PMS_P2;Temp;Humidity;BMP_temperature;BMP_pressure;BME280_temperature;BME280_humidity;BME280_pressure;Samples;Min_cycle;Max_cycle;Signal;HPM_P1;HPM_P2
2024/01/07 00:00:20;;;;;;;13.38;2.33;;;28.80;90.00;;;;;;5056552;28;20025;-71
2024/01/07 00:02:47;;;;;;;14.27;2.22;;;28.60;88.50;;;;;;5054077;28;20366;-71
2024/01/07 00:05:15;;;;;;;10.60;1.90;;;27.90;90.10;;;;;;5036572;28;20122;-72
2024/01/07 00:07:42;;;;;;;9.45;2.03;;;27.80;90.00;;;;;;5052477;28;20377;-69
2024/01/07 00:10:10;;;;;;;16.23;2.35;;;28.00;88.80;;;;;;5052492;28;20097;-71
2024/01/07 00:12:37;;;;;;;16.08;1.90;;;27.90;90.30;;;;;;5052215;28;20025;-70
2024/01/07 00:15:05;;;;;;;18.67;2.85;;;28.50;90.00;;;;;;5051100;28;20021;-70
2024/01/07 00:17:32;;;;;;;10.32;1.80;;;29.30;86.50;;;;;;5049453;28;20043;-71
2024/01/07 00:19:59;;;;;;;14.98;2.70;;;29.50;87.50;;;;;;5053625;28;20389;-71
2024/01/07 00:22:27;;;;;;;14.60;2.72;;;30.20;85.00;;;;;;5052119;28;20033;-71
2024/01/07 00:24:54;;;;;;;10.38;2.08;;;30.20;82.70;;;;;;5052511;28;20065;-72
2024/01/07 00:27:21;;;;;;;11.80;1.90;;;30.20;82.20;;;;;;5058970;28;20485;-71
2024/01/07 00:29:49;;;;;;;9.60;1.85;;;30.20;81.80;;;;;;5047668;28;20026;-71
2024/01/07 00:32:16;;;;;;;10.02;2.15;;;30.20;83.80;;;;;;5048098;28;20033;-71
2024/01/07 00:34:44;;;;;;;13.40;2.05;;;30.50;83.80;;;;;;5028237;28;20040;-71
2024/01/07 00:37:11;;;;;;;8.93;1.50;;;30.20;82.00;;;;;;5049494;28;20029;-70
2024/01/07 00:39:38;;;;;;;7.38;1.60;;;30.30;81.20;;;;;;5048830;28;20461;-70
2024/01/07 00:42:06;;;;;;;9.82;1.90;;;30.70;82.20;;;;;;5049307;28;20064;-72
2024/01/07 00:44:34;;;;;;;9.23;2.08;;;30.30;80.60;;;;;;5040766;28;20036;-71
2024/01/07 00:47:02;;;;;;;9.73;1.80;;;30.20;81.60;;;;;;5044974;28;21442;-72
2024/01/07 00:49:30;;;;;;;10.30;2.10;;;30.30;80.60;;;;;;5046738;28;20072;-72
2024/01/07 00:51:57;;;;;;;11.73;1.80;;;30.90;80.90;;;;;;5045529;28;20048;-71
2024/01/07 00:54:25;;;;;;;10.02;2.20;;;31.00;78.60;;;;;;5029451;28;20456;-70
2024/01/07 00:56:52;;;;;;;11.63;1.92;;;30.60;78.70;;;;;;5043236;28;20429;-71
2024/01/07 00:59:20;;;;;;;10.80;1.83;;;30.70;78.90;;;;;;5048343;28;20024;-71
2024/01/07 01:01:47;;;;;;;8.75;1.75;;;30.60;80.20;;;;;;5054273;28;20386;-71
2024/01/07 01:04:14;;;;;;;11.52;2.13;;;30.50;79.40;;;;;;5051525;28;20035;-72
2024/01/07 01:06:41;;;;;;;11.50;2.03;;;30.70;79.70;;;;;;5039848;28;20029;-72
2024/01/07 01:09:09;;;;;;;10.80;1.60;;;31.10;80.70;;;;;;5055391;28;20513;-70
2024/01/07 01:11:36;;;;;;;7.93;1.55;;;31.10;77.80;;;;;;5051071;28;20018;-71
2024/01/07 01:14:03;;;;;;;11.20;2.75;;;31.00;78.50;;;;;;5052854;28;20512;-72
2024/01/07 01:16:31;;;;;;;10.40;1.88;;;30.50;79.50;;;;;;5053422;28;20018;-71
2024/01/07 01:18:58;;;;;;;11.68;2.05;;;30.60;79.20;;;;;;5054748;28;20082;-72
2024/01/07 01:21:26;;;;;;;13.20;2.38;;;31.20;79.60;;;;;;5056288;28;20048;-72
2024/01/07 01:23:53;;;;;;;9.52;1.90;;;31.60;77.20;;;;;;5052345;28;20033;-72
2024/01/07 01:26:20;;;;;;;11.48;1.80;;;31.90;76.00;;;;;;5050638;28;20373;-71
2024/01/07 01:28:48;;;;;;;8.35;1.50;;;31.90;75.70;;;;;;5036403;28;20471;-71
2024/01/07 01:31:15;;;;;;;7.70;1.80;;;32.10;76.00;;;;;;5055620;28;20123;-72
2024/01/07 01:33:43;;;;;;;8.88;2.00;;;32.60;75.60;;;;;;5057427;28;20078;-71
2024/01/07 01:36:10;;;;;;;10.55;1.85;;;32.60;74.30;;;;;;5056848;28;20069;-72
2024/01/07 01:38:38;;;;;;;10.88;1.77;;;32.70;73.00;;;;;;5053552;28;20023;-72
2024/01/07 01:41:05;;;;;;;7.13;1.40;;;32.60;73.90;;;;;;5057966;28;20116;-72
2024/01/07 01:43:32;;;;;;;8.27;2.20;;;32.70;72.10;;;;;;5061154;28;20474;-71
2024/01/07 01:46:00;;;;;;;8.82;1.55;;;32.60;72.70;;;;;;5055696;28;20539;-74
2024/01/07 01:48:28;;;;;;;9.38;1.90;;;32.30;72.30;;;;;;5053115;28;20040;-72
2024/01/07 01:50:57;;;;;;;12.50;2.10;;;31.90;74.00;;;;;;5057314;28;20056;-73
2024/01/07 01:53:26;;;;;;;8.35;1.77;;;32.10;73.10;;;;;;5059865;28;20028;-72
2024/01/07 01:55:55;;;;;;;12.82;1.75;;;32.00;72.10;;;;;;5057727;28;20016;-71
2024/01/07 01:58:23;;;;;;;13.50;2.13;;;31.50;73.60;;;;;;5054141;28;20035;-72
2024/01/07 02:00:51;;;;;;;11.48;2.00;;;32.00;73.20;;;;;;5054915;28;20036;-72
2024/01/07 02:03:19;;;;;;;8.10;1.83;;;32.40;73.20;;;;;;5054237;28;20030;-71
2024/01/07 02:05:49;;;;;;;11.45;1.58;;;32.40;71.50;;;;;;5052032;28;20108;-72
2024/01/07 02:08:17;;;;;;;12.30;2.08;;;31.90;71.80;;;;;;5054864;28;20131;-72
2024/01/07 02:10:45;;;;;;;9.35;1.73;;;32.00;71.80;;;;;;5037414;28;20057;-72
2024/01/07 02:13:12;;;;;;;14.80;1.50;;;32.00;71.70;;;;;;5054333;28;20031;-73
2024/01/07 02:15:40;;;;;;;9.52;1.77;;;32.40;71.00;;;;;;5044411;28;20021;-71
2024/01/07 02:18:07;;;;;;;7.38;1.85;;;32.40;70.00;;;;;;5055276;28;20078;-73
2024/01/07 02:20:35;;;;;;;8.02;1.77;;;32.00;72.20;;;;;;5055450;28;20013;-73
2024/01/07 02:23:04;;;;;;;9.68;1.75;;;32.40;71.30;;;;;;5050301;28;20021;-74
2024/01/07 02:25:36;;;;;;;8.10;1.70;;;32.60;71.00;;;;;;5051354;28;20067;-73
2024/01/07 02:28:04;;;;;;;13.48;1.60;;;32.90;70.50;;;;;;5055780;28;20033;-73
2024/01/07 02:30:32;;;;;;;7.97;1.63;;;32.80;69.00;;;;;;5031102;28;20032;-72
2024/01/07 02:33:03;;;;;;;10.77;2.30;;;32.70;71.00;;;;;;5055913;28;20032;-72
2024/01/07 02:35:31;;;;;;;13.52;1.65;;;32.50;71.10;;;;;;5047707;28;20112;-72
2024/01/07 02:37:58;;;;;;;7.90;1.50;;;32.50;70.50;;;;;;5045491;28;20055;-71
2024/01/07 02:40:25;;;;;;;8.10;1.27;;;32.60;70.20;;;;;;5052833;28;20066;-73
2024/01/07 02:42:53;;;;;;;12.55;1.98;;;32.70;69.40;;;;;;5048166;28;20022;-73
2024/01/07 02:45:20;;;;;;;6.28;1.35;;;33.00;70.10;;;;;;5041062;28;20094;-73
2024/01/07 02:47:47;;;;;;;9.43;1.95;;;33.30;69.70;;;;;;5044890;28;20173;-73
2024/01/07 02:50:16;;;;;;;9.50;1.95;;;33.30;67.90;;;;;;5047060;28;20043;-73
2024/01/07 02:52:43;;;;;;;8.82;1.45;;;32.90;67.70;;;;;;5051446;28;20494;-72
2024/01/07 02:55:11;;;;;;;9.32;2.13;;;32.60;69.50;;;;;;5049224;28;20017;-73
2024/01/07 02:57:38;;;;;;;9.07;1.80;;;32.50;70.80;;;;;;5050128;28;20072;-72
2024/01/07 03:00:06;;;;;;;9.95;1.40;;;32.70;70.10;;;;;;5049595;28;20021;-72
2024/01/07 03:02:34;;;;;;;9.50;1.90;;;32.70;68.90;;;;;;5052489;28;20048;-72
2024/01/07 03:05:01;;;;;;;11.68;2.20;;;32.90;68.50;;;;;;5050190;28;20386;-73
2024/01/07 03:07:28;;;;;;;7.57;1.58;;;33.10;70.00;;;;;;5050635;28;20055;-72
2024/01/07 03:09:56;;;;;;;10.57;2.08;;;33.50;67.80;;;;;;5058029;28;20503;-72
2024/01/07 03:12:23;;;;;;;10.65;1.98;;;33.40;68.30;;;;;;5048990;28;20025;-72
2024/01/07 03:14:50;;;;;;;6.78;1.73;;;33.40;67.00;;;;;;5048793;28;20390;-72
2024/01/07 03:17:18;;;;;;;7.90;2.05;;;33.40;67.60;;;;;;5055851;28;20025;-72
2024/01/07 03:19:45;;;;;;;8.75;1.85;;;33.80;67.70;;;;;;5049907;28;20029;-72
2024/01/07 03:22:12;;;;;;;9.02;1.23;;;34.00;66.90;;;;;;5057259;28;20078;-72
2024/01/07 03:24:41;;;;;;;7.20;1.50;;;34.30;67.20;;;;;;5054619;28;20025;-72
2024/01/07 03:27:09;;;;;;;6.32;1.38;;;34.20;66.60;;;;;;5056368;28;20046;-72
2024/01/07 03:29:36;;;;;;;8.02;1.65;;;34.30;67.80;;;;;;5055736;28;20036;-72
2024/01/07 03:32:04;;;;;;;7.97;1.40;;;33.90;66.60;;;;;;5057988;28;20021;-72
2024/01/07 03:34:31;;;;;;;10.73;2.17;;;33.50;66.80;;;;;;5054195;28;20041;-71
2024/01/07 03:36:58;;;;;;;10.70;2.08;;;33.00;66.90;;;;;;5057156;28;20012;-69
2024/01/07 03:39:29;;;;;;;9.43;2.20;;;32.40;68.10;;;;;;5055573;28;20029;-71
2024/01/07 03:41:56;;;;;;;16.00;2.35;;;32.10;70.90;;;;;;5054211;28;20417;-71
2024/01/07 03:44:24;;;;;;;11.43;1.92;;;31.60;72.90;;;;;;5050872;28;20033;-70
2024/01/07 03:46:51;;;;;;;12.32;2.00;;;31.40;74.10;;;;;;5058390;28;20465;-72
2024/01/07 03:49:19;;;;;;;12.88;2.75;;;31.40;75.20;;;;;;5052678;28;20461;-72
2024/01/07 03:51:46;;;;;;;12.15;2.17;;;31.80;75.00;;;;;;5050802;28;20029;-73
2024/01/07 03:54:13;;;;;;;10.38;1.85;;;31.80;75.00;;;;;;5053160;28;20462;-72
2024/01/07 03:56:41;;;;;;;15.25;1.90;;;31.70;76.30;;;;;;5049862;28;20028;-73
2024/01/07 03:59:08;;;;;;;11.40;2.55;;;31.50;75.70;;;;;;5050816;28;20069;-72
2024/01/07 04:01:35;;;;;;;8.70;2.17;;;31.70;75.80;;;;;;5034015;28;20055;-72
2024/01/07 04:04:03;;;;;;;11.82;2.03;;;31.70;75.20;;;;;;5042625;28;20022;-72
2024/01/07 04:06:30;;;;;;;14.50;2.35;;;32.00;75.70;;;;;;5049233;28;20383;-72
2024/01/07 04:08:58;;;;;;;6.95;1.75;;;32.60;74.00;;;;;;5052070;28;20504;-71
2024/01/07 04:11:25;;;;;;;14.50;2.10;;;32.80;74.20;;;;;;5046783;28;20463;-71
2024/01/07 04:13:53;;;;;;;12.45;2.00;;;32.10;74.20;;;;;;5050692;28;20021;-71
2024/01/07 04:16:20;;;;;;;13.93;2.15;;;31.50;75.90;;;;;;5046786;28;20072;-70
2024/01/07 04:18:48;;;;;;;11.95;2.22;;;31.20;76.80;;;;;;5045939;28;20025;-72
2024/01/07 04:21:15;;;;;;;12.40;2.40;;;31.10;78.00;;;;;;5049957;28;20025;-72
2024/01/07 04:23:43;;;;;;;20.40;2.65;;;31.00;78.40;;;;;;5044011;28;20159;-73
2024/01/07 04:26:11;;;;;;;13.10;1.60;;;30.90;79.50;;;;;;5046703;28;20048;-74
2024/01/07 04:28:42;;;;;;;11.07;2.15;;;31.20;79.40;;;;;;5051493;28;20179;-71
2024/01/07 04:31:10;;;;;;;13.43;1.92;;;31.30;78.20;;;;;;5048644;28;20036;-72
2024/01/07 04:33:38;;;;;;;9.32;2.08;;;31.40;78.10;;;;;;5049566;28;20021;-72
2024/01/07 04:36:05;;;;;;;10.43;1.75;;;31.20;78.40;;;;;;5050333;28;20508;-72
2024/01/07 04:38:33;;;;;;;8.95;2.13;;;31.20;79.20;;;;;;5052058;28;20037;-72
2024/01/07 04:41:00;;;;;;;9.25;1.50;;;31.20;78.70;;;;;;5055730;28;20036;-72
2024/01/07 04:43:27;;;;;;;15.98;2.50;;;31.30;79.10;;;;;;5052435;28;20036;-72
2024/01/07 04:45:55;;;;;;;14.55;2.47;;;30.80;79.60;;;;;;5050362;28;20029;-71
2024/01/07 04:48:23;;;;;;;16.90;2.55;;;30.50;81.20;;;;;;5055571;28;20131;-72
2024/01/07 04:50:50;;;;;;;12.18;2.13;;;30.70;81.00;;;;;;5056291;28;20075;-71
2024/01/07 04:53:17;;;;;;;17.02;2.50;;;31.00;81.50;;;;;;5056638;28;20147;-71
2024/01/07 04:55:45;;;;;;;10.13;1.95;;;31.40;79.50;;;;;;5058391;28;22497;-71
2024/01/07 04:58:12;;;;;;;13.88;2.33;;;31.50;79.70;;;;;;5053740;28;20112;-70
2024/01/07 05:00:39;;;;;;;7.35;1.85;;;31.70;79.60;;;;;;5061649;28;20391;-70
2024/01/07 05:03:07;;;;;;;14.02;2.17;;;31.90;77.70;;;;;;5054195;28;20021;-71
2024/01/07 05:05:36;;;;;;;15.15;2.15;;;31.20;79.40;;;;;;5055808;28;20895;-70
2024/01/07 05:08:04;;;;;;;12.23;2.00;;;31.20;80.70;;;;;;5035641;28;20420;-72
2024/01/07 05:10:31;;;;;;;13.85;2.47;;;31.40;80.40;;;;;;5055475;28;20405;-71
2024/01/07 05:12:58;;;;;;;10.15;2.10;;;31.40;79.70;;;;;;5057511;28;20033;-72
2024/01/07 05:15:26;;;;;;;12.70;2.45;;;31.20;79.60;;;;;;5049869;28;20036;-71
2024/01/07 05:17:53;;;;;;;14.82;2.38;;;30.70;80.70;;;;;;5055202;28;20037;-72
2024/01/07 05:20:20;;;;;;;9.73;1.92;;;30.80;81.00;;;;;;5056908;28;20053;-72
2024/01/07 05:22:48;;;;;;;12.18;2.08;;;30.70;81.60;;;;;;5058057;28;20944;-71
2024/01/07 05:25:15;;;;;;;9.80;1.65;;;31.10;80.90;;;;;;5054425;28;20025;-73
2024/01/07 05:27:43;;;;;;;17.30;3.45;;;31.50;80.30;;;;;;5057699;28;20127;-73
2024/01/07 05:30:11;;;;;;;10.30;2.00;;;31.60;79.80;;;;;;5053361;28;21342;-72
2024/01/07 05:32:38;;;;;;;11.77;2.30;;;31.90;79.70;;;;;;5053211;28;20457;-73
2024/01/07 05:35:06;;;;;;;14.50;2.45;;;31.70;78.90;;;;;;5059892;28;20025;-72
2024/01/07 05:37:33;;;;;;;14.73;2.30;;;31.70;79.20;;;;;;5048380;28;20485;-72
2024/01/07 05:40:00;;;;;;;13.45;2.20;;;31.50;79.70;;;;;;5052493;28;20064;-72
2024/01/07 05:42:28;;;;;;;9.45;1.85;;;31.50;79.60;;;;;;5026695;28;20124;-72
2024/01/07 05:44:55;;;;;;;10.63;2.35;;;31.60;78.70;;;;;;5050551;28;20029;-71
2024/01/07 05:47:22;;;;;;;20.75;2.58;;;31.40;79.30;;;;;;5051294;28;20044;-72
2024/01/07 05:49:51;;;;;;;11.98;2.22;;;31.60;79.50;;;;;;5041687;28;20068;-71
2024/01/07 05:52:19;;;;;;;12.20;2.00;;;31.70;78.60;;;;;;5026610;28;20079;-72
2024/01/07 05:54:46;;;;;;;16.42;1.83;;;31.40;79.20;;;;;;5049685;28;20108;-72
2024/01/07 05:57:13;;;;;;;12.55;1.88;;;31.40;78.90;;;;;;5054227;28;20052;-72
2024/01/07 05:59:41;;;;;;;10.52;1.77;;;31.70;78.60;;;;;;5045895;28;20148;-73
2024/01/07 06:02:08;;;;;;;10.40;1.88;;;31.60;79.00;;;;;;5040712;28;20032;-73
2024/01/07 06:04:38;;;;;;;17.95;2.63;;;31.80;78.20;;;;;;5042504;28;20032;-71
2024/01/07 06:07:05;;;;;;;14.05;2.55;;;31.40;78.50;;;;;;5048286;28;20969;-72
2024/01/07 06:09:32;;;;;;;11.85;1.83;;;31.20;79.20;;;;;;5050070;28;20071;-71
2024/01/07 06:12:00;;;;;;;13.38;1.95;;;31.30;79.20;;;;;;5029129;28;20037;-72
2024/01/07 06:14:27;;;;;;;9.68;1.88;;;31.50;78.60;;;;;;5033435;28;20029;-71
2024/01/07 06:16:55;;;;;;;11.68;2.00;;;31.50;78.90;;;;;;5054696;28;20029;-71
2024/01/07 06:19:22;;;;;;;12.20;2.10;;;31.40;79.00;;;;;;5053734;28;20548;-73
2024/01/07 06:21:53;;;;;;;12.70;2.13;;;31.30;79.10;;;;;;5048803;28;20037;-72
2024/01/07 06:24:20;;;;;;;9.43;1.85;;;31.00;79.50;;;;;;5033689;28;20086;-74
2024/01/07 06:26:48;;;;;;;11.13;1.52;;;30.60;80.30;;;;;;5052608;28;20037;-75
2024/01/07 06:29:15;;;;;;;14.02;2.08;;;30.40;81.10;;;;;;5055112;28;20032;-74
2024/01/07 06:31:46;;;;;;;15.25;2.30;;;30.10;82.20;;;;;;5049296;28;20021;-73
2024/01/07 06:34:13;;;;;;;8.77;1.70;;;30.00;82.50;;;;;;5032484;28;20485;-73
2024/01/07 06:36:43;;;;;;;7.47;1.60;;;29.90;82.20;;;;;;5052900;28;20020;-72
2024/01/07 06:39:11;;;;;;;10.93;1.55;;;29.70;83.00;;;;;;5047530;28;20021;-72
2024/01/07 06:41:38;;;;;;;13.85;2.35;;;29.70;83.50;;;;;;5051051;28;20043;-74
2024/01/07 06:44:06;;;;;;;12.98;1.80;;;29.60;83.60;;;;;;5052795;28;20029;-73
2024/01/07 06:46:34;;;;;;;9.55;2.13;;;29.60;83.60;;;;;;5049096;28;20772;-71
2024/01/07 06:49:01;;;;;;;10.52;1.90;;;29.80;83.00;;;;;;5049712;28;20040;-71
2024/01/07 06:51:29;;;;;;;15.98;2.47;;;29.90;83.20;;;;;;5054005;28;20032;-72
2024/01/07 06:53:56;;;;;;;20.23;2.33;;;30.10;82.50;;;;;;5055804;28;20468;-75
2024/01/07 06:56:24;;;;;;;7.32;1.73;;;29.80;82.60;;;;;;5052443;28;20039;-71
2024/01/07 06:58:51;;;;;;;13.10;2.20;;;29.90;82.90;;;;;;5054512;28;20458;-71
2024/01/07 07:01:23;;;;;;;11.32;2.33;;;29.70;82.40;;;;;;5052498;28;20139;-74
2024/01/07 07:03:50;;;;;;;16.92;2.42;;;29.70;82.50;;;;;;5030316;28;20389;-70
2024/01/07 07:06:18;;;;;;;8.32;1.63;;;29.70;82.60;;;;;;5049668;28;20020;-71
2024/01/07 07:08:46;;;;;;;13.43;2.42;;;29.70;82.50;;;;;;5054140;28;20509;-71
2024/01/07 07:11:13;;;;;;;16.95;2.85;;;29.60;82.50;;;;;;5052524;28;20112;-71
2024/01/07 07:13:40;;;;;;;12.60;2.53;;;29.60;83.20;;;;;;5055883;28;20040;-72
2024/01/07 07:16:08;;;;;;;15.80;2.70;;;29.60;82.90;;;;;;5054856;28;20070;-71
2024/01/07 07:18:35;;;;;;;16.58;2.58;;;29.50;83.50;;;;;;5053299;28;20024;-69
2024/01/07 07:21:03;;;;;;;15.63;2.50;;;29.40;84.60;;;;;;5039468;28;20374;-70
2024/01/07 07:23:30;;;;;;;19.58;2.50;;;29.40;84.90;;;;;;5050671;28;20094;-69
2024/01/07 07:25:58;;;;;;;14.32;2.58;;;29.30;84.60;;;;;;5050803;28;20083;-69
2024/01/07 07:28:25;;;;;;;14.30;2.85;;;29.30;84.50;;;;;;5051833;28;20095;-68
2024/01/07 07:30:53;;;;;;;13.95;2.22;;;29.30;84.80;;;;;;5052980;28;20175;-69
2024/01/07 07:33:21;;;;;;;13.07;2.25;;;29.30;85.00;;;;;;5055315;28;20119;-66
2024/01/07 07:35:48;;;;;;;13.70;2.17;;;29.20;85.10;;;;;;5049320;28;20549;-66
2024/01/07 07:38:15;;;;;;;16.38;2.42;;;29.20;85.20;;;;;;5050951;28;20070;-67
2024/01/07 07:40:44;;;;;;;12.05;2.33;;;29.10;85.20;;;;;;5048005;28;20115;-67
2024/01/07 07:43:12;;;;;;;13.00;2.75;;;29.10;85.40;;;;;;5044560;28;20044;-67
2024/01/07 07:45:39;;;;;;;12.10;2.08;;;29.00;85.50;;;;;;5048658;28;20036;-67
2024/01/07 07:48:07;;;;;;;14.13;2.13;;;29.00;85.20;;;;;;5044898;28;20385;-67
2024/01/07 07:50:35;;;;;;;14.43;2.10;;;28.80;85.60;;;;;;5042790;28;20068;-67
2024/01/07 07:53:02;;;;;;;13.07;2.50;;;28.80;85.90;;;;;;5044228;28;20619;-67
2024/01/07 07:55:30;;;;;;;13.38;2.72;;;28.70;85.40;;;;;;5051257;28;20078;-67
2024/01/07 07:57:57;;;;;;;13.02;2.00;;;28.60;85.70;;;;;;5050029;28;20037;-68
2024/01/07 08:00:25;;;;;;;15.13;2.63;;;28.30;86.80;;;;;;5044114;28;20025;-68
2024/01/07 08:02:52;;;;;;;15.32;2.60;;;28.30;87.10;;;;;;5047419;28;20060;-68
2024/01/07 08:05:20;;;;;;;21.02;3.67;;;28.20;87.10;;;;;;5045678;28;20025;-68
2024/01/07 08:07:47;;;;;;;14.13;2.10;;;28.00;87.20;;;;;;5051097;28;20083;-68
2024/01/07 08:10:14;;;;;;;14.10;2.47;;;28.00;87.20;;;;;;5058677;28;20105;-68
2024/01/07 08:12:42;;;;;;;15.43;2.60;;;27.90;87.70;;;;;;5052737;28;20323;-67
2024/01/07 08:15:09;;;;;;;12.52;2.50;;;27.80;87.80;;;;;;5063497;28;20024;-67
2024/01/07 08:17:37;;;;;;;9.05;1.67;;;27.70;87.80;;;;;;5038205;28;20404;-67
2024/01/07 08:20:05;;;;;;;14.63;2.20;;;27.70;88.50;;;;;;5057926;28;20086;-66
2024/01/07 08:22:32;;;;;;;14.25;2.60;;;27.70;88.00;;;;;;5060871;28;20021;-67
2024/01/07 08:24:59;;;;;;;13.60;2.53;;;27.60;88.00;;;;;;5034985;28;20532;-67
2024/01/07 08:27:29;;;;;;;12.98;2.22;;;27.40;88.40;;;;;;5060982;28;20040;-66
2024/01/07 08:29:56;;;;;;;10.93;1.88;;;27.40;88.90;;;;;;5053985;28;20488;-67
2024/01/07 08:32:23;;;;;;;16.45;2.60;;;27.50;88.70;;;;;;5055789;28;20057;-67
2024/01/07 08:34:51;;;;;;;15.10;2.40;;;27.40;88.70;;;;;;5059039;28;20049;-68
2024/01/07 08:37:18;;;;;;;12.02;2.00;;;27.40;88.80;;;;;;5056982;28;20040;-69
2024/01/07 08:39:45;;;;;;;11.35;2.00;;;27.40;89.10;;;;;;5059545;28;20497;-67
2024/01/07 08:42:13;;;;;;;14.60;2.63;;;27.20;89.50;;;;;;5050465;28;20392;-66
2024/01/07 08:44:40;;;;;;;13.05;2.22;;;27.10;90.00;;;;;;5054589;28;20016;-67
2024/01/07 08:47:07;;;;;;;20.17;2.88;;;26.90;90.40;;;;;;5054289;28;20048;-67
2024/01/07 08:49:35;;;;;;;16.27;3.00;;;26.80;90.60;;;;;;5055695;28;20064;-67
2024/01/07 08:52:03;;;;;;;19.80;2.95;;;26.80;90.90;;;;;;5053958;28;20060;-68
2024/01/07 08:54:30;;;;;;;13.95;2.25;;;26.60;91.10;;;;;;5059090;28;20021;-66
2024/01/07 08:56:57;;;;;;;13.65;2.00;;;26.60;91.40;;;;;;5048600;28;20036;-67
2024/01/07 08:59:25;;;;;;;21.02;3.10;;;26.60;91.40;;;;;;5056128;28;20082;-67
2024/01/07 09:01:52;;;;;;;16.65;3.20;;;26.60;91.60;;;;;;5051828;28;20483;-67
2024/01/07 09:04:20;;;;;;;16.50;2.72;;;26.50;91.60;;;;;;5045624;28;20481;-67
2024/01/07 09:06:47;;;;;;;13.45;2.45;;;26.30;92.00;;;;;;5049507;28;20040;-67
2024/01/07 09:09:14;;;;;;;12.70;2.08;;;26.40;92.00;;;;;;5045886;28;20052;-71
2024/01/07 09:11:41;;;;;;;12.05;1.85;;;26.40;92.10;;;;;;5043915;28;20021;-68
2024/01/07 09:14:09;;;;;;;15.25;2.90;;;26.40;92.10;;;;;;5046975;28;20028;-67
2024/01/07 09:16:36;;;;;;;19.15;2.38;;;26.40;92.20;;;;;;5046368;28;20025;-67
2024/01/07 09:19:03;;;;;;;11.52;2.25;;;26.40;92.20;;;;;;5046780;28;20036;-67
2024/01/07 09:21:31;;;;;;;17.63;2.85;;;26.30;92.50;;;;;;5058820;28;20059;-67
2024/01/07 09:23:59;;;;;;;14.43;2.90;;;26.20;92.70;;;;;;5051649;28;20029;-67
2024/01/07 09:26:26;;;;;;;20.48;2.88;;;26.10;92.70;;;;;;5045614;28;20029;-67
2024/01/07 09:28:54;;;;;;;17.33;3.28;;;26.10;92.80;;;;;;5053574;28;20043;-68
2024/01/07 09:31:21;;;;;;;14.73;2.88;;;26.10;92.90;;;;;;5047193;28;20163;-67
2024/01/07 09:33:48;;;;;;;12.45;2.50;;;26.00;93.30;;;;;;5048845;28;20060;-67
2024/01/07 09:36:16;;;;;;;12.57;2.40;;;25.90;93.20;;;;;;5055303;28;20039;-67
2024/01/07 09:38:46;;;;;;;19.13;2.88;;;25.90;93.30;;;;;;5054783;28;20033;-68
2024/01/07 09:41:14;;;;;;;14.48;2.63;;;25.90;93.30;;;;;;5053381;28;20124;-68
2024/01/07 09:43:42;;;;;;;15.45;2.72;;;25.80;93.70;;;;;;5058897;28;20025;-66
2024/01/07 09:46:09;;;;;;;12.27;3.17;;;25.80;93.70;;;;;;5051353;28;20029;-67
2024/01/07 09:48:36;;;;;;;19.15;2.45;;;26.00;93.90;;;;;;5052818;28;20482;-67
2024/01/07 09:51:07;;;;;;;10.23;2.80;;;26.00;94.00;;;;;;5052043;28;20108;-67
2024/01/07 09:53:38;;;;;;;10.93;2.20;;;25.90;93.90;;;;;;5047874;28;20033;-67
2024/01/07 09:56:43;;;;;;;14.82;2.80;;;25.80;94.00;;;;;;5055315;28;20047;-67
2024/01/07 09:59:11;;;;;;;14.55;3.03;;;25.80;94.10;;;;;;5042879;28;20043;-66
2024/01/07 10:01:39;;;;;;;14.15;2.85;;;25.60;94.40;;;;;;5052414;28;20521;-67
2024/01/07 10:04:06;;;;;;;18.77;2.60;;;25.60;94.50;;;;;;5041101;28;20119;-69
2024/01/07 10:06:34;;;;;;;20.88;2.75;;;25.50;94.80;;;;;;5055873;28;20751;-68
2024/01/07 10:09:01;;;;;;;15.20;2.63;;;25.70;94.70;;;;;;5050650;28;20048;-67
2024/01/07 10:11:28;;;;;;;14.30;2.80;;;25.60;94.80;;;;;;5048321;28;20064;-67
2024/01/07 10:13:56;;;;;;;12.73;2.50;;;25.60;94.70;;;;;;5053583;28;20032;-67
2024/01/07 10:16:23;;;;;;;13.40;2.70;;;25.60;94.90;;;;;;5054994;28;20033;-67
2024/01/07 10:18:51;;;;;;;17.50;2.25;;;25.40;95.10;;;;;;5048568;28;20021;-67
2024/01/07 10:21:19;;;;;;;14.15;2.85;;;25.60;95.00;;;;;;5048483;28;20071;-67
2024/01/07 10:23:47;;;;;;;21.70;3.03;;;25.60;95.00;;;;;;5051846;28;20028;-68
2024/01/07 10:26:14;;;;;;;19.92;3.17;;;25.50;95.00;;;;;;5049398;28;20025;-67
2024/01/07 10:28:43;;;;;;;19.25;2.90;;;25.30;95.50;;;;;;5052900;28;20033;-67
2024/01/07 10:31:10;;;;;;;18.65;2.60;;;25.30;95.50;;;;;;5043516;28;20017;-68
2024/01/07 10:33:38;;;;;;;14.68;2.92;;;25.40;95.40;;;;;;5049237;28;20021;-67
2024/01/07 10:36:10;;;;;;;13.93;2.80;;;25.40;95.40;;;;;;5053422;28;20029;-68
2024/01/07 10:38:37;;;;;;;17.98;2.40;;;25.40;95.40;;;;;;5045657;28;21041;-68
2024/01/07 10:41:09;;;;;;;20.05;3.70;;;25.50;95.40;;;;;;5044475;28;20083;-68
2024/01/07 10:43:39;;;;;;;14.55;2.72;;;25.30;95.60;;;;;;5048005;28;20048;-68
2024/01/07 10:46:08;;;;;;;18.48;2.50;;;25.20;95.80;;;;;;5047778;28;20025;-68
2024/01/07 10:48:42;;;;;;;12.75;2.08;;;25.10;96.10;;;;;;5053387;28;20509;-68
2024/01/07 10:51:09;;;;;;;16.60;2.50;;;25.10;96.20;;;;;;5046340;28;20052;-67
2024/01/07 10:53:54;;;;;;;16.67;2.67;;;25.10;96.20;;;;;;5039035;27;20473;-67
2024/01/07 10:56:24;;;;;;;20.25;2.95;;;25.10;96.20;;;;;;5035050;28;20030;-67
2024/01/07 10:58:57;;;;;;;18.23;2.60;;;25.10;96.20;;;;;;5041486;28;20028;-68
2024/01/07 11:01:25;;;;;;;20.85;2.95;;;25.00;96.40;;;;;;5037904;28;20108;-67
2024/01/07 11:04:24;;;;;;;14.13;2.08;;;24.90;96.80;;;;;;5033630;28;20025;-68
2024/01/07 11:07:09;;;;;;;12.60;2.05;;;25.00;96.60;;;;;;5031573;28;20037;-67
2024/01/07 11:09:54;;;;;;;14.48;2.35;;;25.10;96.50;;;;;;5038915;28;20029;-67
2024/01/07 11:12:21;;;;;;;15.63;3.42;;;25.10;96.40;;;;;;5037387;28;20072;-68
2024/01/07 11:14:52;;;;;;;19.83;2.92;;;24.90;96.70;;;;;;5037775;28;20112;-68
2024/01/07 11:17:38;;;;;;;17.52;2.58;;;25.00;96.70;;;;;;5036645;28;20017;-68
2024/01/07 11:20:19;;;;;;;23.02;3.47;;;25.00;96.50;;;;;;5035068;28;20041;-67
2024/01/07 11:22:47;;;;;;;19.20;2.67;;;25.00;96.60;;;;;;5037294;28;20029;-68
2024/01/07 11:25:31;;;;;;;15.27;2.60;;;24.90;96.90;;;;;;5034582;28;20026;-68
2024/01/07 11:28:01;;;;;;;18.42;2.63;;;24.90;96.90;;;;;;5035778;28;20037;-68
2024/01/07 11:30:29;;;;;;;19.55;2.75;;;24.70;97.10;;;;;;5035646;28;20032;-67
2024/01/07 11:33:04;;;;;;;15.90;2.30;;;24.60;97.40;;;;;;5032903;28;20121;-67
2024/01/07 11:35:59;;;;;;;11.90;2.70;;;24.60;97.50;;;;;;5033836;28;20572;-68
2024/01/07 11:38:26;;;;;;;13.38;1.73;;;24.80;97.10;;;;;;5030408;28;20502;-68
2024/01/07 11:40:55;;;;;;;23.13;4.15;;;24.70;97.30;;;;;;5035379;28;20151;-67
2024/01/07 11:43:22;;;;;;;26.42;4.55;;;24.70;97.30;;;;;;5034577;28;20871;-68
2024/01/07 11:45:54;;;;;;;29.85;4.93;;;24.70;97.30;;;;;;5036109;28;20018;-67
2024/01/07 11:48:21;;;;;;;14.18;3.15;;;24.80;97.30;;;;;;5030930;28;20029;-68
2024/01/07 11:50:49;;;;;;;12.43;2.58;;;24.90;96.90;;;;;;5035141;28;20029;-69
2024/01/07 11:53:17;;;;;;;11.40;2.72;;;24.70;97.20;;;;;;5029705;28;20517;-68
2024/01/07 11:55:46;;;;;;;18.73;2.85;;;24.60;97.30;;;;;;5034341;28;20490;-69
2024/01/07 11:58:14;;;;;;;13.15;2.72;;;24.60;97.40;;;;;;5034801;28;20036;-68
2024/01/07 12:00:41;;;;;;;21.55;3.30;;;24.60;97.50;;;;;;5036793;28;20055;-68
2024/01/07 12:03:09;;;;;;;16.00;2.63;;;24.70;97.40;;;;;;5033586;28;20029;-69
2024/01/07 12:05:36;;;;;;;22.90;3.05;;;24.80;97.30;;;;;;5024777;28;20099;-68
2024/01/07 12:08:04;;;;;;;13.75;2.60;;;24.70;97.40;;;;;;5021052;28;20043;-68
2024/01/07 12:10:32;;;;;;;13.48;2.60;;;24.60;97.80;;;;;;5016420;28;20107;-68
2024/01/07 12:12:59;;;;;;;17.45;2.60;;;24.50;97.70;;;;;;5023700;28;20049;-69
2024/01/07 12:15:28;;;;;;;18.55;3.58;;;24.60;97.40;;;;;;5024201;28;20786;-68
2024/01/07 12:18:00;;;;;;;16.60;2.70;;;24.40;97.70;;;;;;5025041;28;20037;-69
2024/01/07 12:20:28;;;;;;;11.07;2.47;;;24.40;97.80;;;;;;5021842;28;20379;-68
2024/01/07 12:23:10;;;;;;;15.68;2.25;;;24.30;98.00;;;;;;5020791;28;20104;-69
2024/01/07 12:25:37;;;;;;;16.23;2.72;;;24.20;98.20;;;;;;5014256;28;20075;-68
2024/01/07 12:28:09;;;;;;;17.20;2.63;;;24.30;98.00;;;;;;5014177;28;20130;-68
2024/01/07 12:30:38;;;;;;;14.00;2.50;;;24.30;98.10;;;;;;5022350;28;20494;-68
2024/01/07 12:33:06;;;;;;;14.80;2.88;;;24.00;98.30;;;;;;5040914;28;20037;-69
2024/01/07 12:35:34;;;;;;;15.85;2.38;;;24.00;98.40;;;;;;5017814;28;20184;-68
2024/01/07 12:38:02;;;;;;;17.58;3.35;;;24.10;98.30;;;;;;5018308;28;20026;-68
2024/01/07 12:40:30;;;;;;;14.18;2.97;;;24.10;98.30;;;;;;5017855;28;20375;-68
2024/01/07 12:42:57;;;;;;;10.90;2.20;;;24.00;98.50;;;;;;5014754;28;20374;-68